sensor_id;sensor_type;location;lat;lon;timestamp;pressure;altitude;pressure_sealevel;temperature;humidity
11985;BME280;6052;53.246;10.368;2023-05-09T00:01:56;101633.16;;;14.48;57.44
11985;BME280;6052;53.246;10.368;2023-05-09T00:04:28;101632.91;;;14.50;57.95
11985;BME280;6052;53.246;10.368;2023-05-09T00:06:58;101627.31;;;14.40;57.93
11985;BME280;6052;53.246;10.368;2023-05-09T00:09:28;101625.56;;;14.34;57.74
11985;BME280;6052;53.246;10.368;2023-05-09T00:11:57;101626.97;;;14.36;57.84
11985;BME280;6052;53.246;10.368;2023-05-09T00:14:28;101620.63;;;14.31;57.95
11985;BME280;6052;53.246;10.368;2023-05-09T00:16:59;101622.44;;;14.25;58.40
11985;BME280;6052;53.246;10.368;2023-05-09T00:19:32;101613.47;;;14.13;58.80
11985;BME280;6052;53.246;10.368;2023-05-09T00:22:02;101621.50;;;14.20;58.40
11985;BME280;6052;53.246;10.368;2023-05-09T00:24:31;101614.91;;;14.27;58.75
11985;BME280;6052;53.246;10.368;2023-05-09T00:27:01;101618.91;;;14.25;58.59
11985;BME280;6052;53.246;10.368;2023-05-09T00:29:30;101618.13;;;14.41;58.39
11985;BME280;6052;53.246;10.368;2023-05-09T00:31:59;101614.09;;;14.27;58.90
11985;BME280;6052;53.246;10.368;2023-05-09T00:34:32;101609.69;;;14.37;58.58
11985;BME280;6052;53.246;10.368;2023-05-09T00:37:01;101606.44;;;14.35;58.64
11985;BME280;6052;53.246;10.368;2023-05-09T00:39:31;101600.53;;;14.38;58.33
11985;BME280;6052;53.246;10.368;2023-05-09T00:42:01;101597.19;;;14.20;58.66
11985;BME280;6052;53.246;10.368;2023-05-09T00:44:31;101602.22;;;14.16;59.32
11985;BME280;6052;53.246;10.368;2023-05-09T00:47:01;101594.34;;;14.15;59.68
11985;BME280;6052;53.246;10.368;2023-05-09T00:49:33;101593.88;;;14.29;59.32
11985;BME280;6052;53.246;10.368;2023-05-09T00:52:03;101597.78;;;13.99;59.61
11985;BME280;6052;53.246;10.368;2023-05-09T00:54:33;101590.72;;;14.09;59.74
11985;BME280;6052;53.246;10.368;2023-05-09T00:57:03;101584.84;;;14.12;59.59
11985;BME280;6052;53.246;10.368;2023-05-09T00:59:33;101583.78;;;14.02;59.83
11985;BME280;6052;53.246;10.368;2023-05-09T01:02:02;101577.69;;;14.18;59.42
11985;BME280;6052;53.246;10.368;2023-05-09T01:04:35;101576.16;;;14.10;59.77
11985;BME280;6052;53.246;10.368;2023-05-09T01:07:09;101580.50;;;14.23;59.48
11985;BME280;6052;53.246;10.368;2023-05-09T01:09:44;101574.03;;;14.12;59.94
11985;BME280;6052;53.246;10.368;2023-05-09T01:12:21;101567.69;;;14.07;60.12
11985;BME280;6052;53.246;10.368;2023-05-09T01:14:58;101563.25;;;14.01;60.10
11985;BME280;6052;53.246;10.368;2023-05-09T01:17:48;101568.44;;;13.91;60.41
11985;BME280;6052;53.246;10.368;2023-05-09T01:20:37;101562.81;;;14.04;60.37
11985;BME280;6052;53.246;10.368;2023-05-09T01:23:42;101566.56;;;14.03;60.35
11985;BME280;6052;53.246;10.368;2023-05-09T01:26:20;101556.75;;;13.85;60.68
11985;BME280;6052;53.246;10.368;2023-05-09T01:29:30;101552.16;;;13.86;60.52
11985;BME280;6052;53.246;10.368;2023-05-09T01:32:06;101552.63;;;13.83;61.09
11985;BME280;6052;53.246;10.368;2023-05-09T01:34:37;101544.19;;;13.68;60.95
11985;BME280;6052;53.246;10.368;2023-05-09T01:37:11;101543.84;;;13.64;61.24
11985;BME280;6052;53.246;10.368;2023-05-09T01:39:52;101542.78;;;13.65;61.26
11985;BME280;6052;53.246;10.368;2023-05-09T01:42:24;101532.47;;;13.62;61.63
11985;BME280;6052;53.246;10.368;2023-05-09T01:44:59;101536.91;;;13.68;61.29
11985;BME280;6052;53.246;10.368;2023-05-09T01:47:29;101533.88;;;13.65;61.68
11985;BME280;6052;53.246;10.368;2023-05-09T01:50:00;101534.91;;;13.75;61.16
11985;BME280;6052;53.246;10.368;2023-05-09T01:52:32;101524.16;;;13.64;61.24
11985;BME280;6052;53.246;10.368;2023-05-09T01:55:04;101526.03;;;13.63;61.37
11985;BME280;6052;53.246;10.368;2023-05-09T01:57:36;101516.75;;;13.48;61.65
11985;BME280;6052;53.246;10.368;2023-05-09T02:00:13;101519.78;;;13.63;61.60
11985;BME280;6052;53.246;10.368;2023-05-09T02:02:44;101521.56;;;13.57;61.78
11985;BME280;6052;53.246;10.368;2023-05-09T02:05:14;101520.75;;;13.45;62.29
11985;BME280;6052;53.246;10.368;2023-05-09T02:07:46;101529.91;;;13.44;62.24
11985;BME280;6052;53.246;10.368;2023-05-09T02:10:17;101518.88;;;13.46;62.48
11985;BME280;6052;53.246;10.368;2023-05-09T02:12:51;101513.25;;;13.47;62.31
11985;BME280;6052;53.246;10.368;2023-05-09T02:15:23;101516.41;;;13.33;62.59
11985;BME280;6052;53.246;10.368;2023-05-09T02:17:53;101519.47;;;13.25;62.77
11985;BME280;6052;53.246;10.368;2023-05-09T02:20:24;101528.72;;;13.29;63.09
11985;BME280;6052;53.246;10.368;2023-05-09T02:22:54;101515.59;;;13.32;62.43
11985;BME280;6052;53.246;10.368;2023-05-09T02:25:24;101524.03;;;13.24;63.00
11985;BME280;6052;53.246;10.368;2023-05-09T02:27:55;101517.34;;;13.15;63.32
11985;BME280;6052;53.246;10.368;2023-05-09T02:30:32;101511.84;;;13.22;63.37
11985;BME280;6052;53.246;10.368;2023-05-09T02:33:06;101500.22;;;13.33;63.23
11985;BME280;6052;53.246;10.368;2023-05-09T02:35:36;101501.16;;;13.15;63.43
11985;BME280;6052;53.246;10.368;2023-05-09T02:38:06;101512.19;;;13.02;64.18
11985;BME280;6052;53.246;10.368;2023-05-09T02:40:37;101516.75;;;13.02;64.17
11985;BME280;6052;53.246;10.368;2023-05-09T02:43:08;101506.94;;;13.07;64.07
11985;BME280;6052;53.246;10.368;2023-05-09T02:45:41;101502.22;;;13.03;63.88
11985;BME280;6052;53.246;10.368;2023-05-09T02:48:10;101503.34;;;12.95;64.15
11985;BME280;6052;53.246;10.368;2023-05-09T02:50:40;101498.69;;;12.91;64.21
11985;BME280;6052;53.246;10.368;2023-05-09T02:53:11;101501.38;;;12.91;64.78
11985;BME280;6052;53.246;10.368;2023-05-09T02:55:41;101502.03;;;12.86;64.76
11985;BME280;6052;53.246;10.368;2023-05-09T02:58:10;101498.69;;;12.91;65.15
11985;BME280;6052;53.246;10.368;2023-05-09T03:00:43;101495.13;;;12.79;65.58
11985;BME280;6052;53.246;10.368;2023-05-09T03:03:13;101497.69;;;12.74;65.86
11985;BME280;6052;53.246;10.368;2023-05-09T03:05:44;101495.81;;;12.74;65.64
11985;BME280;6052;53.246;10.368;2023-05-09T03:08:13;101497.53;;;12.57;66.45
11985;BME280;6052;53.246;10.368;2023-05-09T03:10:43;101497.75;;;12.56;66.11
11985;BME280;6052;53.246;10.368;2023-05-09T03:13:13;101500.00;;;12.59;66.65
11985;BME280;6052;53.246;10.368;2023-05-09T03:15:45;101500.78;;;12.48;66.41
11985;BME280;6052;53.246;10.368;2023-05-09T03:18:15;101509.00;;;12.53;66.44
11985;BME280;6052;53.246;10.368;2023-05-09T03:20:45;101486.63;;;12.52;66.78
11985;BME280;6052;53.246;10.368;2023-05-09T03:23:15;101487.16;;;12.31;67.23
11985;BME280;6052;53.246;10.368;2023-05-09T03:25:45;101491.97;;;12.41;67.13
11985;BME280;6052;53.246;10.368;2023-05-09T03:28:18;101490.94;;;12.42;67.37
11985;BME280;6052;53.246;10.368;2023-05-09T03:30:50;101493.28;;;12.50;67.27
11985;BME280;6052;53.246;10.368;2023-05-09T03:33:19;101484.16;;;12.39;67.53
11985;BME280;6052;53.246;10.368;2023-05-09T03:35:49;101498.91;;;12.37;68.08
11985;BME280;6052;53.246;10.368;2023-05-09T03:38:18;101488.28;;;12.65;67.16
11985;BME280;6052;53.246;10.368;2023-05-09T03:40:49;101481.19;;;12.70;66.92
11985;BME280;6052;53.246;10.368;2023-05-09T03:43:19;101476.13;;;12.74;66.72
11985;BME280;6052;53.246;10.368;2023-05-09T03:45:51;101477.88;;;12.57;66.59
11985;BME280;6052;53.246;10.368;2023-05-09T03:48:20;101474.56;;;12.55;67.16
11985;BME280;6052;53.246;10.368;2023-05-09T03:50:49;101468.75;;;12.58;67.10
11985;BME280;6052;53.246;10.368;2023-05-09T03:53:19;101474.78;;;12.53;67.59
11985;BME280;6052;53.246;10.368;2023-05-09T03:55:48;101469.06;;;12.50;67.28
11985;BME280;6052;53.246;10.368;2023-05-09T03:58:18;101464.03;;;12.42;67.54
11985;BME280;6052;53.246;10.368;2023-05-09T04:00:47;101464.28;;;12.52;67.92
11985;BME280;6052;53.246;10.368;2023-05-09T04:03:19;101458.16;;;12.45;67.62
11985;BME280;6052;53.246;10.368;2023-05-09T04:05:49;101460.06;;;12.56;68.01
11985;BME280;6052;53.246;10.368;2023-05-09T04:08:18;101457.63;;;12.25;68.46
11985;BME280;6052;53.246;10.368;2023-05-09T04:10:48;101466.28;;;12.15;69.02
11985;BME280;6052;53.246;10.368;2023-05-09T04:13:17;101458.78;;;12.17;69.86
11985;BME280;6052;53.246;10.368;2023-05-09T04:15:47;101461.78;;;12.09;69.84
11985;BME280;6052;53.246;10.368;2023-05-09T04:18:19;101450.66;;;12.06;70.07
11985;BME280;6052;53.246;10.368;2023-05-09T04:20:49;101458.19;;;12.15;69.69
11985;BME280;6052;53.246;10.368;2023-05-09T04:23:18;101448.53;;;11.96;70.28
11985;BME280;6052;53.246;10.368;2023-05-09T04:25:48;101457.03;;;11.93;70.84
11985;BME280;6052;53.246;10.368;2023-05-09T04:28:19;101455.34;;;11.81;71.44
11985;BME280;6052;53.246;10.368;2023-05-09T04:30:49;101450.22;;;12.09;70.55
11985;BME280;6052;53.246;10.368;2023-05-09T04:33:22;101446.31;;;12.05;70.98
11985;BME280;6052;53.246;10.368;2023-05-09T04:35:51;101444.47;;;12.17;70.61
11985;BME280;6052;53.246;10.368;2023-05-09T04:38:23;101442.50;;;12.12;70.60
11985;BME280;6052;53.246;10.368;2023-05-09T04:40:52;101442.66;;;11.99;71.14
11985;BME280;6052;53.246;10.368;2023-05-09T04:43:22;101443.63;;;12.05;71.35
11985;BME280;6052;53.246;10.368;2023-05-09T04:45:53;101444.00;;;12.08;71.34
11985;BME280;6052;53.246;10.368;2023-05-09T04:48:25;101456.81;;;11.95;71.76
11985;BME280;6052;53.246;10.368;2023-05-09T04:50:55;101450.44;;;12.07;71.71
11985;BME280;6052;53.246;10.368;2023-05-09T04:53:25;101450.50;;;12.01;71.52
11985;BME280;6052;53.246;10.368;2023-05-09T04:55:55;101449.09;;;11.98;72.36
11985;BME280;6052;53.246;10.368;2023-05-09T04:58:24;101446.19;;;12.00;71.90
11985;BME280;6052;53.246;10.368;2023-05-09T05:00:53;101445.19;;;11.83;72.97
11985;BME280;6052;53.246;10.368;2023-05-09T05:03:25;101450.38;;;11.96;72.92
11985;BME280;6052;53.246;10.368;2023-05-09T05:05:55;101447.97;;;12.06;72.22
11985;BME280;6052;53.246;10.368;2023-05-09T05:08:24;101447.97;;;12.06;72.62
11985;BME280;6052;53.246;10.368;2023-05-09T05:10:54;101436.63;;;12.04;72.77
11985;BME280;6052;53.246;10.368;2023-05-09T05:13:23;101432.09;;;12.16;72.65
11985;BME280;6052;53.246;10.368;2023-05-09T05:15:53;101431.47;;;12.02;72.93
11985;BME280;6052;53.246;10.368;2023-05-09T05:18:26;101426.06;;;12.02;72.98
11985;BME280;6052;53.246;10.368;2023-05-09T05:20:56;101433.50;;;11.89;74.00
11985;BME280;6052;53.246;10.368;2023-05-09T05:23:25;101430.50;;;11.97;73.19
11985;BME280;6052;53.246;10.368;2023-05-09T05:25:55;101427.22;;;11.95;73.85
11985;BME280;6052;53.246;10.368;2023-05-09T05:28:24;101422.81;;;12.12;73.78
11985;BME280;6052;53.246;10.368;2023-05-09T05:30:53;101420.38;;;12.10;72.98
11985;BME280;6052;53.246;10.368;2023-05-09T05:33:25;101407.47;;;12.01;73.39
11985;BME280;6052;53.246;10.368;2023-05-09T05:35:55;101399.75;;;12.04;73.52
11985;BME280;6052;53.246;10.368;2023-05-09T05:38:24;101404.59;;;12.14;73.42
11985;BME280;6052;53.246;10.368;2023-05-09T05:40:53;101399.78;;;12.16;73.67
11985;BME280;6052;53.246;10.368;2023-05-09T05:43:23;101388.44;;;12.14;73.93
11985;BME280;6052;53.246;10.368;2023-05-09T05:45:53;101385.09;;;12.30;74.12
11985;BME280;6052;53.246;10.368;2023-05-09T05:48:23;101380.38;;;12.14;74.03
11985;BME280;6052;53.246;10.368;2023-05-09T05:50:55;101381.06;;;12.21;74.46
11985;BME280;6052;53.246;10.368;2023-05-09T05:53:24;101386.06;;;12.06;74.26
11985;BME280;6052;53.246;10.368;2023-05-09T05:55:56;101376.69;;;12.38;74.60
11985;BME280;6052;53.246;10.368;2023-05-09T05:58:25;101381.84;;;12.39;73.84
11985;BME280;6052;53.246;10.368;2023-05-09T06:00:54;101381.03;;;12.50;74.22
11985;BME280;6052;53.246;10.368;2023-05-09T06:03:24;101379.88;;;12.58;74.12
11985;BME280;6052;53.246;10.368;2023-05-09T06:05:56;101387.22;;;12.62;74.12
11985;BME280;6052;53.246;10.368;2023-05-09T06:08:25;101385.59;;;12.50;73.76
11985;BME280;6052;53.246;10.368;2023-05-09T06:10:55;101382.91;;;12.61;73.63
11985;BME280;6052;53.246;10.368;2023-05-09T06:13:24;101381.03;;;12.85;73.33
11985;BME280;6052;53.246;10.368;2023-05-09T06:15:54;101376.34;;;12.80;72.57
11985;BME280;6052;53.246;10.368;2023-05-09T06:18:40;101376.59;;;12.90;73.02
11985;BME280;6052;53.246;10.368;2023-05-09T06:21:12;101367.56;;;12.85;72.36
11985;BME280;6052;53.246;10.368;2023-05-09T06:23:42;101366.88;;;13.01;72.83
11985;BME280;6052;53.246;10.368;2023-05-09T06:26:31;101359.94;;;13.16;73.89
11985;BME280;6052;53.246;10.368;2023-05-09T06:29:01;101358.78;;;13.12;72.28
11985;BME280;6052;53.246;10.368;2023-05-09T06:31:31;101363.47;;;13.17;71.50
11985;BME280;6052;53.246;10.368;2023-05-09T06:34:04;101359.56;;;13.24;72.10
11985;BME280;6052;53.246;10.368;2023-05-09T06:36:36;101357.81;;;13.30;71.02
11985;BME280;6052;53.246;10.368;2023-05-09T06:39:06;101365.25;;;13.51;71.86
11985;BME280;6052;53.246;10.368;2023-05-09T06:41:35;101361.16;;;13.48;70.95
11985;BME280;6052;53.246;10.368;2023-05-09T06:44:04;101356.41;;;13.55;72.24
11985;BME280;6052;53.246;10.368;2023-05-09T06:46:34;101355.13;;;13.58;71.44
11985;BME280;6052;53.246;10.368;2023-05-09T06:49:03;101359.09;;;13.67;72.12
11985;BME280;6052;53.246;10.368;2023-05-09T06:51:33;101361.88;;;13.72;71.28
11985;BME280;6052;53.246;10.368;2023-05-09T06:54:05;101358.34;;;13.83;71.53
11985;BME280;6052;53.246;10.368;2023-05-09T06:56:34;101354.88;;;13.87;71.70
11985;BME280;6052;53.246;10.368;2023-05-09T06:59:04;101348.19;;;13.90;70.59
11985;BME280;6052;53.246;10.368;2023-05-09T07:01:33;101348.03;;;13.96;71.05
11985;BME280;6052;53.246;10.368;2023-05-09T07:04:03;101351.25;;;14.10;70.71
11985;BME280;6052;53.246;10.368;2023-05-09T07:06:33;101354.59;;;14.17;70.79
11985;BME280;6052;53.246;10.368;2023-05-09T07:09:05;101341.38;;;14.15;69.69
11985;BME280;6052;53.246;10.368;2023-05-09T07:11:34;101346.03;;;14.20;69.88
11985;BME280;6052;53.246;10.368;2023-05-09T07:14:04;101337.63;;;14.33;70.01
11985;BME280;6052;53.246;10.368;2023-05-09T07:16:33;101328.47;;;14.34;69.37
11985;BME280;6052;53.246;10.368;2023-05-09T07:19:03;101327.06;;;14.48;69.63
11985;BME280;6052;53.246;10.368;2023-05-09T07:21:32;101315.41;;;14.64;69.78
11985;BME280;6052;53.246;10.368;2023-05-09T07:24:05;101323.19;;;14.77;70.06
11985;BME280;6052;53.246;10.368;2023-05-09T07:26:37;101310.22;;;14.79;68.22
11985;BME280;6052;53.246;10.368;2023-05-09T07:29:06;101307.75;;;14.77;67.96
11985;BME280;6052;53.246;10.368;2023-05-09T07:31:36;101307.13;;;15.08;68.32
11985;BME280;6052;53.246;10.368;2023-05-09T07:34:07;101309.56;;;15.10;67.62
11985;BME280;6052;53.246;10.368;2023-05-09T07:36:36;101306.22;;;15.24;67.78
11985;BME280;6052;53.246;10.368;2023-05-09T07:39:08;101305.69;;;15.44;67.92
11985;BME280;6052;53.246;10.368;2023-05-09T07:41:38;101301.28;;;15.64;68.01
11985;BME280;6052;53.246;10.368;2023-05-09T07:44:07;101294.06;;;15.70;67.23
11985;BME280;6052;53.246;10.368;2023-05-09T07:46:37;101290.16;;;15.87;67.37
11985;BME280;6052;53.246;10.368;2023-05-09T07:49:07;101284.31;;;16.00;66.71
11985;BME280;6052;53.246;10.368;2023-05-09T07:51:36;101280.16;;;16.19;66.63
11985;BME280;6052;53.246;10.368;2023-05-09T07:54:09;101285.09;;;16.32;66.19
11985;BME280;6052;53.246;10.368;2023-05-09T07:56:39;101275.19;;;16.43;65.13
11985;BME280;6052;53.246;10.368;2023-05-09T07:59:08;101271.97;;;16.51;64.99
11985;BME280;6052;53.246;10.368;2023-05-09T08:01:37;101260.38;;;16.55;63.95
11985;BME280;6052;53.246;10.368;2023-05-09T08:04:07;101265.53;;;16.57;64.04
11985;BME280;6052;53.246;10.368;2023-05-09T08:06:36;101258.63;;;16.81;64.30
11985;BME280;6052;53.246;10.368;2023-05-09T08:09:06;101258.81;;;16.69;62.23
11985;BME280;6052;53.246;10.368;2023-05-09T08:11:38;101257.66;;;16.55;63.01
11985;BME280;6052;53.246;10.368;2023-05-09T08:14:08;101251.47;;;16.65;63.17
11985;BME280;6052;53.246;10.368;2023-05-09T08:16:39;101245.78;;;16.66;63.29
11985;BME280;6052;53.246;10.368;2023-05-09T08:19:08;101253.75;;;16.88;63.31
11985;BME280;6052;53.246;10.368;2023-05-09T08:21:38;101240.50;;;16.96;63.16
11985;BME280;6052;53.246;10.368;2023-05-09T08:24:07;101242.97;;;17.08;62.58
11985;BME280;6052;53.246;10.368;2023-05-09T08:26:39;101226.75;;;17.23;62.87
11985;BME280;6052;53.246;10.368;2023-05-09T08:29:09;101226.22;;;17.26;62.29
11985;BME280;6052;53.246;10.368;2023-05-09T08:31:39;101227.94;;;17.52;62.42
11985;BME280;6052;53.246;10.368;2023-05-09T08:34:08;101223.06;;;17.64;61.25
11985;BME280;6052;53.246;10.368;2023-05-09T08:36:38;101216.28;;;17.71;61.45
11985;BME280;6052;53.246;10.368;2023-05-09T08:39:07;101216.81;;;17.83;61.71
11985;BME280;6052;53.246;10.368;2023-05-09T08:41:41;101204.84;;;17.94;59.98
11985;BME280;6052;53.246;10.368;2023-05-09T08:44:11;101209.22;;;18.05;60.17
11985;BME280;6052;53.246;10.368;2023-05-09T08:46:42;101205.91;;;18.33;61.02
11985;BME280;6052;53.246;10.368;2023-05-09T08:49:12;101203.47;;;18.37;60.64
11985;BME280;6052;53.246;10.368;2023-05-09T08:51:42;101197.22;;;18.36;59.15
11985;BME280;6052;53.246;10.368;2023-05-09T08:54:13;101200.72;;;18.47;59.35
11985;BME280;6052;53.246;10.368;2023-05-09T08:56:45;101198.81;;;18.42;58.52
11985;BME280;6052;53.246;10.368;2023-05-09T08:59:16;101205.88;;;18.53;57.92
11985;BME280;6052;53.246;10.368;2023-05-09T09:01:45;101184.41;;;18.52;57.31
11985;BME280;6052;53.246;10.368;2023-05-09T09:04:15;101178.94;;;18.57;56.87
11985;BME280;6052;53.246;10.368;2023-05-09T09:06:45;101186.47;;;18.75;57.45
11985;BME280;6052;53.246;10.368;2023-05-09T09:09:16;101186.91;;;18.97;56.82
11985;BME280;6052;53.246;10.368;2023-05-09T09:11:49;101177.19;;;18.86;56.61
11985;BME280;6052;53.246;10.368;2023-05-09T09:14:22;101179.59;;;18.97;56.92
11985;BME280;6052;53.246;10.368;2023-05-09T09:16:53;101174.38;;;19.01;56.47
11985;BME280;6052;53.246;10.368;2023-05-09T09:19:29;101176.75;;;19.17;56.46
11985;BME280;6052;53.246;10.368;2023-05-09T09:22:02;101186.84;;;19.12;54.69
11985;BME280;6052;53.246;10.368;2023-05-09T09:24:33;101182.19;;;19.22;55.56
11985;BME280;6052;53.246;10.368;2023-05-09T09:27:06;101167.47;;;19.18;54.53
11985;BME280;6052;53.246;10.368;2023-05-09T09:29:35;101165.81;;;19.27;54.13
11985;BME280;6052;53.246;10.368;2023-05-09T09:32:05;101169.81;;;19.40;54.69
11985;BME280;6052;53.246;10.368;2023-05-09T09:34:35;101165.72;;;19.42;54.86
11985;BME280;6052;53.246;10.368;2023-05-09T09:37:05;101163.69;;;19.53;54.92
11985;BME280;6052;53.246;10.368;2023-05-09T09:39:34;101154.50;;;19.49;54.68
11985;BME280;6052;53.246;10.368;2023-05-09T09:42:12;101154.81;;;19.42;54.22
11985;BME280;6052;53.246;10.368;2023-05-09T09:44:42;101151.34;;;19.32;53.77
11985;BME280;6052;53.246;10.368;2023-05-09T09:47:11;101149.72;;;19.31;53.14
11985;BME280;6052;53.246;10.368;2023-05-09T09:49:45;101143.56;;;19.54;54.19
11985;BME280;6052;53.246;10.368;2023-05-09T09:52:22;101145.50;;;19.48;53.33
11985;BME280;6052;53.246;10.368;2023-05-09T09:54:54;101135.56;;;19.34;53.09
11985;BME280;6052;53.246;10.368;2023-05-09T09:57:37;101141.47;;;19.41;53.35
11985;BME280;6052;53.246;10.368;2023-05-09T10:00:10;101135.13;;;19.50;53.77
11985;BME280;6052;53.246;10.368;2023-05-09T10:02:49;101122.84;;;19.53;52.66
11985;BME280;6052;53.246;10.368;2023-05-09T10:05:20;101124.72;;;19.57;53.23
11985;BME280;6052;53.246;10.368;2023-05-09T10:07:53;101125.19;;;19.64;53.65
11985;BME280;6052;53.246;10.368;2023-05-09T10:10:25;101116.31;;;19.82;53.83
11985;BME280;6052;53.246;10.368;2023-05-09T10:12:58;101114.72;;;20.05;55.11
11985;BME280;6052;53.246;10.368;2023-05-09T10:15:30;101111.28;;;20.23;53.76
11985;BME280;6052;53.246;10.368;2023-05-09T10:18:20;101115.19;;;20.17;53.38
11985;BME280;6052;53.246;10.368;2023-05-09T10:20:55;101104.91;;;20.09;51.64
11985;BME280;6052;53.246;10.368;2023-05-09T10:23:26;101101.91;;;20.05;51.98
11985;BME280;6052;53.246;10.368;2023-05-09T10:26:02;101101.50;;;20.22;52.92
11985;BME280;6052;53.246;10.368;2023-05-09T10:28:37;101094.44;;;20.16;51.96
11985;BME280;6052;53.246;10.368;2023-05-09T10:31:11;101089.59;;;20.13;51.39
11985;BME280;6052;53.246;10.368;2023-05-09T10:33:46;101084.69;;;20.33;51.78
11985;BME280;6052;53.246;10.368;2023-05-09T10:36:17;101078.28;;;20.24;51.04
11985;BME280;6052;53.246;10.368;2023-05-09T10:38:48;101082.50;;;20.35;51.12
11985;BME280;6052;53.246;10.368;2023-05-09T10:41:18;101067.13;;;20.63;51.79
11985;BME280;6052;53.246;10.368;2023-05-09T10:43:54;101059.44;;;20.65;51.52
11985;BME280;6052;53.246;10.368;2023-05-09T10:46:23;101054.50;;;20.85;51.72
11985;BME280;6052;53.246;10.368;2023-05-09T10:48:54;101063.81;;;20.84;52.01
11985;BME280;6052;53.246;10.368;2023-05-09T10:51:24;101055.09;;;20.82;51.13
11985;BME280;6052;53.246;10.368;2023-05-09T10:53:54;101054.28;;;20.82;50.98
11985;BME280;6052;53.246;10.368;2023-05-09T10:56:25;101043.09;;;20.83;50.89
11985;BME280;6052;53.246;10.368;2023-05-09T10:58:57;101044.88;;;20.93;50.96
11985;BME280;6052;53.246;10.368;2023-05-09T11:01:28;101035.41;;;21.04;50.83
11985;BME280;6052;53.246;10.368;2023-05-09T11:04:05;101027.22;;;21.04;50.37
11985;BME280;6052;53.246;10.368;2023-05-09T11:06:41;101015.06;;;20.96;50.33
11985;BME280;6052;53.246;10.368;2023-05-09T11:09:23;101014.59;;;21.08;50.67
11985;BME280;6052;53.246;10.368;2023-05-09T11:11:55;101011.09;;;21.21;50.80
11985;BME280;6052;53.246;10.368;2023-05-09T11:14:38;101003.59;;;21.13;51.11
11985;BME280;6052;53.246;10.368;2023-05-09T11:17:10;101002.78;;;21.12;50.00
11985;BME280;6052;53.246;10.368;2023-05-09T11:19:58;101004.53;;;21.22;50.23
11985;BME280;6052;53.246;10.368;2023-05-09T11:22:30;100993.88;;;21.07;49.80
11985;BME280;6052;53.246;10.368;2023-05-09T11:25:04;100976.19;;;21.18;50.37
11985;BME280;6052;53.246;10.368;2023-05-09T11:27:39;100973.16;;;21.19;49.75
11985;BME280;6052;53.246;10.368;2023-05-09T11:30:14;100972.69;;;21.31;50.18
11985;BME280;6052;53.246;10.368;2023-05-09T11:32:45;100975.50;;;21.26;49.86
11985;BME280;6052;53.246;10.368;2023-05-09T11:35:17;100975.59;;;21.21;49.47
11985;BME280;6052;53.246;10.368;2023-05-09T11:37:49;100977.16;;;21.40;50.13
11985;BME280;6052;53.246;10.368;2023-05-09T11:40:21;100965.81;;;21.33;49.22
11985;BME280;6052;53.246;10.368;2023-05-09T11:42:53;100954.59;;;21.35;49.66
11985;BME280;6052;53.246;10.368;2023-05-09T11:45:27;100945.28;;;21.49;50.36
11985;BME280;6052;53.246;10.368;2023-05-09T11:47:58;100952.78;;;21.44;49.63
11985;BME280;6052;53.246;10.368;2023-05-09T11:50:29;100937.81;;;21.41;48.72
11985;BME280;6052;53.246;10.368;2023-05-09T11:52:59;100947.91;;;21.41;48.63
11985;BME280;6052;53.246;10.368;2023-05-09T11:55:29;100945.38;;;21.44;48.98
11985;BME280;6052;53.246;10.368;2023-05-09T11:57:58;100930.59;;;21.32;48.77
11985;BME280;6052;53.246;10.368;2023-05-09T12:00:30;100937.59;;;21.38;48.08
11985;BME280;6052;53.246;10.368;2023-05-09T12:02:59;100923.22;;;21.46;48.39
11985;BME280;6052;53.246;10.368;2023-05-09T12:05:29;100919.28;;;21.52;48.73
11985;BME280;6052;53.246;10.368;2023-05-09T12:08:01;100910.47;;;21.55;49.73
11985;BME280;6052;53.246;10.368;2023-05-09T12:10:35;100924.72;;;21.65;49.01
11985;BME280;6052;53.246;10.368;2023-05-09T12:13:05;100907.94;;;21.58;48.49
11985;BME280;6052;53.246;10.368;2023-05-09T12:15:37;100891.38;;;21.68;49.17
11985;BME280;6052;53.246;10.368;2023-05-09T12:18:10;100894.59;;;21.57;49.19
11985;BME280;6052;53.246;10.368;2023-05-09T12:20:41;100898.53;;;21.64;48.52
11985;BME280;6052;53.246;10.368;2023-05-09T12:23:11;100895.31;;;21.49;47.11
11985;BME280;6052;53.246;10.368;2023-05-09T12:25:46;100895.31;;;21.62;47.36
11985;BME280;6052;53.246;10.368;2023-05-09T12:28:16;100882.06;;;21.69;47.90
11985;BME280;6052;53.246;10.368;2023-05-09T12:30:49;100872.81;;;21.65;48.63
11985;BME280;6052;53.246;10.368;2023-05-09T12:33:19;100883.13;;;21.82;48.31
11985;BME280;6052;53.246;10.368;2023-05-09T12:36:01;100882.16;;;21.78;47.63
11985;BME280;6052;53.246;10.368;2023-05-09T12:38:31;100890.38;;;21.78;47.92
11985;BME280;6052;53.246;10.368;2023-05-09T12:41:01;100882.75;;;21.75;48.51
11985;BME280;6052;53.246;10.368;2023-05-09T12:43:34;100870.19;;;21.60;47.11
11985;BME280;6052;53.246;10.368;2023-05-09T12:46:07;100874.34;;;21.58;48.27
11985;BME280;6052;53.246;10.368;2023-05-09T12:48:37;100874.03;;;21.59;48.54
11985;BME280;6052;53.246;10.368;2023-05-09T12:51:07;100875.34;;;21.62;49.08
11985;BME280;6052;53.246;10.368;2023-05-09T12:53:38;100864.81;;;21.55;48.07
11985;BME280;6052;53.246;10.368;2023-05-09T12:56:12;100865.44;;;21.66;48.30
11985;BME280;6052;53.246;10.368;2023-05-09T12:58:49;100870.03;;;21.70;48.49
11985;BME280;6052;53.246;10.368;2023-05-09T13:01:25;100872.84;;;21.79;49.05
11985;BME280;6052;53.246;10.368;2023-05-09T13:04:00;100863.94;;;21.73;47.74
11985;BME280;6052;53.246;10.368;2023-05-09T13:06:31;100872.31;;;21.77;48.05
11985;BME280;6052;53.246;10.368;2023-05-09T13:09:03;100859.25;;;21.87;47.65
11985;BME280;6052;53.246;10.368;2023-05-09T13:11:33;100858.75;;;21.85;48.38
11985;BME280;6052;53.246;10.368;2023-05-09T13:14:03;100860.91;;;21.75;47.74